createdAt,value
2019-01-21T00:00:45.725Z,101699.96
2019-01-21T00:02:40.644Z,101700.37
2019-01-21T00:04:33.811Z,101704.70
2019-01-21T00:06:27.091Z,101699.55
2019-01-21T00:08:21.208Z,101708.22
2019-01-21T00:10:14.509Z,101708.66
2019-01-21T00:12:07.672Z,101710.45
2019-01-21T00:14:00.917Z,101707.91
2019-01-21T00:15:55.564Z,101705.81
2019-01-21T00:17:48.472Z,101707.57
2019-01-21T00:19:41.525Z,101711.47
2019-01-21T00:21:35.982Z,101707.09
2019-01-21T00:23:29.309Z,101710.08
2019-01-21T00:25:23.145Z,101704.02
2019-01-21T00:27:16.508Z,101704.42
2019-01-21T00:29:09.591Z,101701.84
2019-01-21T00:31:04.025Z,101707.50
2019-01-21T00:32:57.176Z,101708.86
2019-01-21T00:34:51.506Z,101705.41
2019-01-21T00:36:44.503Z,101704.45
2019-01-21T00:38:38.602Z,101710.96
2019-01-21T00:40:31.645Z,101708.80
2019-01-21T00:42:24.811Z,101712.66
2019-01-21T00:44:17.854Z,101710.45
2019-01-21T00:46:11.192Z,101717.30
2019-01-21T00:48:04.716Z,101715.51
2019-01-21T00:49:58.443Z,101711.17
2019-01-21T00:51:51.884Z,101714.16
2019-01-21T00:53:45.250Z,101714.63
2019-01-21T01:31:05.549Z,101735.11
2019-01-21T01:32:58.494Z,101726.58
2019-01-21T01:34:52.941Z,101730.84
2019-01-21T01:36:47.224Z,101729.59
2019-01-21T01:38:41.983Z,101730.00
2019-01-21T01:40:35.466Z,101731.76
2019-01-21T01:42:28.810Z,101725.22
2019-01-21T01:44:22.041Z,101724.31
2019-01-21T01:46:14.973Z,101721.97
2019-01-21T01:48:08.497Z,101726.21
2019-01-21T01:50:01.975Z,101726.21
2019-01-21T01:51:55.922Z,101726.69
2019-01-21T01:53:49.270Z,101725.84
2019-01-21T01:55:42.304Z,101724.55
2019-01-21T01:57:35.444Z,101729.80
2019-01-21T01:59:28.694Z,101730.75
2019-01-21T02:01:22.311Z,101726.51
2019-01-21T02:03:15.706Z,101724.34
2019-01-21T02:05:09.451Z,101725.70
2019-01-21T02:07:02.431Z,101727.42
2019-01-21T02:08:55.641Z,101723.12
2019-01-21T02:10:49.373Z,101734.73
2019-01-21T02:12:42.638Z,101724.81
2019-01-21T02:14:35.948Z,101721.77
2019-01-21T02:16:29.208Z,101723.94
2019-01-21T02:18:22.462Z,101718.75
2019-01-21T02:20:16.032Z,101722.55
2019-01-21T02:22:09.405Z,101728.11
2019-01-21T02:24:09.727Z,101725.53
2019-01-21T02:26:11.272Z,101722.08
2019-01-21T02:28:57.385Z,101723.36
2019-01-21T02:31:48.176Z,101727.33
2019-01-21T02:34:13.909Z,101724.00
2019-01-21T02:36:40.229Z,101724.00
2019-01-21T02:39:44.429Z,101724.81
2019-01-21T02:42:24.114Z,101722.27
2019-01-21T02:45:25.451Z,101731.35
2019-01-21T02:48:12.218Z,101727.99
2019-01-21T02:51:24.606Z,101724.60
2019-01-21T02:54:04.398Z,101726.36
2019-01-21T02:57:19.859Z,101721.21
2019-01-21T02:59:42.904Z,101730.33
2019-01-21T03:02:29.652Z,101721.21
2019-01-21T03:05:23.573Z,101728.06
2019-01-21T03:07:50.730Z,101725.08
2019-01-21T03:10:48.131Z,101722.41
2019-01-21T03:13:18.262Z,101723.22
2019-01-21T03:16:25.757Z,101727.96
2019-01-21T03:19:15.555Z,101727.89
2019-01-21T03:22:01.216Z,101727.08
2019-01-21T03:24:46.886Z,101736.13
2019-01-21T03:27:27.527Z,101724.50
2019-01-21T03:30:06.587Z,101725.83
2019-01-21T03:32:34.854Z,101718.54
2019-01-21T03:35:38.145Z,101723.31
2019-01-21T03:38:37.813Z,101719.05
2019-01-21T03:41:27.203Z,101716.68
2019-01-21T03:44:19.030Z,101718.00
2019-01-21T03:46:43.168Z,101718.06
2019-01-21T03:49:22.976Z,101717.19
2019-01-21T03:52:13.010Z,101716.78
2019-01-21T03:54:24.944Z,101723.69
2019-01-21T03:57:12.800Z,101712.54
2019-01-21T04:00:04.853Z,101716.91
2019-01-21T04:03:13.183Z,101718.73
2019-01-21T04:06:07.597Z,101720.84
2019-01-21T04:09:15.733Z,101720.45
2019-01-21T04:11:48.344Z,101718.86
2019-01-21T04:14:57.687Z,101715.84
2019-01-21T04:18:03.916Z,101710.73
2019-01-21T04:20:33.370Z,101716.69
2019-01-21T04:23:12.985Z,101711.03
2019-01-21T04:25:38.475Z,101721.81
2019-01-21T04:28:05.942Z,101723.98
2019-01-21T04:30:22.532Z,101721.00
2019-01-21T04:32:57.830Z,101722.69
2019-01-21T04:35:31.900Z,101725.36
2019-01-21T04:38:17.497Z,101725.87
2019-01-21T04:41:11.500Z,101723.77
2019-01-21T04:43:42.137Z,101726.38
2019-01-21T04:46:19.175Z,101727.25
2019-01-21T04:48:52.709Z,101725.08
2019-01-21T04:51:24.015Z,101734.10
2019-01-21T04:54:31.279Z,101725.46
2019-01-21T04:57:12.384Z,101728.04
2019-01-21T05:00:00.126Z,101726.66
2019-01-21T05:02:59.329Z,101732.59
2019-01-21T05:05:59.018Z,101727.18
2019-01-21T05:08:54.850Z,101732.91
2019-01-21T05:11:31.662Z,101728.41
2019-01-21T05:14:27.227Z,101725.84
2019-01-21T05:17:39.998Z,101723.67
2019-01-21T05:20:38.710Z,101721.53
2019-01-21T05:23:38.646Z,101722.83
2019-01-21T05:26:14.243Z,101719.00
2019-01-21T05:29:05.166Z,101724.21
2019-01-21T05:32:09.643Z,101728.48
2019-01-21T05:35:17.789Z,101720.66
2019-01-21T05:37:58.769Z,101725.73
2019-01-21T05:40:46.235Z,101723.57
2019-01-21T05:43:28.058Z,101723.54
2019-01-21T05:46:33.974Z,101719.20
2019-01-21T05:49:16.645Z,101721.78
2019-01-21T05:52:19.450Z,101718.23
2019-01-21T05:55:05.020Z,101720.29
2019-01-21T05:58:18.977Z,101721.41
2019-01-21T06:01:07.675Z,101726.86
2019-01-21T06:03:58.866Z,101731.57
2019-01-21T06:06:40.935Z,101729.23
2019-01-21T06:09:35.852Z,101725.81
2019-01-21T06:12:12.211Z,101734.17
2019-01-21T06:15:08.770Z,101735.64
2019-01-21T06:17:51.634Z,101736.03
2019-01-21T06:20:33.174Z,101737.03
2019-01-21T06:23:30.094Z,101734.64
2019-01-21T06:25:59.257Z,101739.39
2019-01-21T06:28:18.496Z,101733.16
2019-01-21T06:31:09.775Z,101731.89
2019-01-21T06:33:56.705Z,101738.05
2019-01-21T06:36:23.023Z,101739.19
2019-01-21T06:39:19.945Z,101741.17
2019-01-21T06:42:03.868Z,101741.06
2019-01-21T06:44:31.061Z,101751.47
2019-01-21T06:46:52.847Z,101751.62
2019-01-21T06:50:09.074Z,101752.79
2019-01-21T06:53:03.465Z,101753.30
2019-01-21T06:55:41.142Z,101749.92
2019-01-21T06:58:29.063Z,101746.59
2019-01-21T07:01:05.778Z,101751.21
2019-01-21T07:03:50.839Z,101755.55
2019-01-21T07:06:57.765Z,101769.57
2019-01-21T07:09:57.123Z,101763.36
2019-01-21T07:12:16.403Z,101778.67
2019-01-21T07:15:14.132Z,101776.69
2019-01-21T07:17:51.019Z,101786.20
2019-01-21T07:20:29.110Z,101789.95
2019-01-21T07:23:19.480Z,101782.72
2019-01-21T07:26:14.150Z,101792.63
2019-01-21T07:29:16.834Z,101798.18
2019-01-21T07:31:50.334Z,101796.66
2019-01-21T07:34:39.683Z,101800.63
2019-01-21T07:37:50.263Z,101792.59
2019-01-21T07:40:13.475Z,101789.77
2019-01-21T07:43:01.436Z,101797.08
2019-01-21T07:45:33.103Z,101805.16
2019-01-21T07:48:28.929Z,101807.13
2019-01-21T07:51:35.129Z,101812.09
2019-01-21T07:53:57.116Z,101817.52
2019-01-21T07:56:48.626Z,101821.42
2019-01-21T07:59:44.145Z,101818.52
2019-01-21T08:02:33.215Z,101828.20
2019-01-21T08:05:43.374Z,101833.06
2019-01-21T08:08:19.870Z,101833.18
2019-01-21T08:11:23.185Z,101832.39
2019-01-21T08:14:12.340Z,101841.22
2019-01-21T08:17:11.343Z,101849.00
2019-01-21T08:19:52.703Z,101843.62
2019-01-21T08:22:57.518Z,101843.77
2019-01-21T08:25:43.380Z,101842.49
2019-01-21T08:28:35.441Z,101836.31
2019-01-21T08:31:28.312Z,101838.25
2019-01-21T08:35:00.226Z,101839.66
2019-01-21T08:38:01.065Z,101836.23
2019-01-21T08:40:55.985Z,101845.20
2019-01-21T08:43:58.795Z,101851.21
2019-01-21T08:46:55.750Z,101856.30
2019-01-21T08:49:44.605Z,101855.25
2019-01-21T08:52:28.229Z,101850.19
2019-01-21T08:55:21.858Z,101848.58
2019-01-21T08:58:33.501Z,101858.05
2019-01-21T09:00:56.050Z,101850.72
2019-01-21T09:03:34.928Z,101845.95
2019-01-21T09:06:17.488Z,101843.51
2019-01-21T09:09:16.068Z,101849.97
2019-01-21T09:12:06.020Z,101845.28
2019-01-21T09:15:30.948Z,101852.86
2019-01-21T09:17:44.388Z,101854.22
2019-01-21T09:20:28.636Z,101840.53
2019-01-21T09:23:29.465Z,101839.84
2019-01-21T09:26:05.772Z,101835.05
2019-01-21T09:28:39.763Z,101838.09
2019-01-21T09:31:39.913Z,101835.34
2019-01-21T09:34:24.278Z,101837.91
2019-01-21T09:37:20.742Z,101834.94
2019-01-21T09:40:28.986Z,101832.22
2019-01-21T09:43:15.133Z,101838.81
2019-01-21T09:46:11.180Z,101840.94
2019-01-21T09:48:01.258Z,101839.48
2019-01-21T09:49:55.204Z,101842.70
2019-01-21T09:52:19.270Z,101843.95
2019-01-21T09:54:18.202Z,101840.77
2019-01-21T09:56:12.424Z,101848.60
2019-01-21T09:58:11.118Z,101844.27
2019-01-21T10:00:06.756Z,101850.52
2019-01-21T10:02:06.321Z,101850.17
2019-01-21T10:03:59.433Z,101849.28
2019-01-21T10:05:57.893Z,101852.94
2019-01-21T10:09:03.309Z,101853.22
2019-01-21T10:11:50.194Z,101850.73
2019-01-21T10:14:58.015Z,101854.34
2019-01-21T10:18:00.054Z,101852.50
2019-01-21T10:21:04.694Z,101846.03
2019-01-21T10:23:39.262Z,101847.55
2019-01-21T10:26:35.734Z,101844.00
2019-01-21T10:29:16.944Z,101836.34
2019-01-21T10:32:39.811Z,101843.72
2019-01-21T10:35:02.533Z,101835.53
2019-01-21T10:37:45.252Z,101830.96
2019-01-21T10:40:44.902Z,101840.77
2019-01-21T10:43:46.527Z,101835.81
2019-01-21T10:46:07.324Z,101841.36
2019-01-21T10:48:40.086Z,101839.33
2019-01-21T10:50:59.744Z,101845.35
2019-01-21T10:53:13.604Z,101839.56
2019-01-21T10:55:57.654Z,101833.83
2019-01-21T10:58:17.525Z,101831.08
2019-01-21T11:00:56.254Z,101838.58
2019-01-21T11:03:09.893Z,101832.26
2019-01-21T11:05:23.841Z,101827.27
2019-01-21T11:07:55.804Z,101838.91
2019-01-21T11:10:27.283Z,101845.23
2019-01-21T11:12:53.271Z,101834.98
2019-01-21T11:15:37.123Z,101827.11
2019-01-21T11:18:01.810Z,101816.58
2019-01-21T11:20:46.364Z,101813.48
2019-01-21T11:23:08.483Z,101821.02
2019-01-21T11:25:44.931Z,101814.73
2019-01-21T11:28:11.814Z,101810.88
2019-01-21T11:30:41.984Z,101799.37
2019-01-21T11:33:33.453Z,101795.84
2019-01-21T11:36:05.014Z,101787.53
2019-01-21T11:38:18.791Z,101788.28
2019-01-21T11:40:39.123Z,101790.56
2019-01-21T11:43:04.234Z,101784.34
2019-01-21T11:45:31.706Z,101778.81
2019-01-21T11:47:48.193Z,101765.41
2019-01-21T11:50:33.664Z,101758.91
2019-01-21T11:52:47.423Z,101754.84
2019-01-21T11:55:20.887Z,101753.09
2019-01-21T11:57:49.704Z,101745.34
2019-01-21T12:00:18.304Z,101740.82
2019-01-21T12:02:50.217Z,101738.59
2019-01-21T12:05:15.552Z,101738.63
2019-01-21T12:07:35.844Z,101740.80
2019-01-21T12:10:24.362Z,101735.92
2019-01-21T12:12:39.334Z,101736.12
2019-01-21T12:15:01.990Z,101735.92
2019-01-21T12:17:30.928Z,101737.72
2019-01-21T12:20:17.062Z,101731.06
2019-01-21T12:22:42.685Z,101735.36
2019-01-21T12:24:49.754Z,101741.33
2019-01-21T12:27:26.801Z,101731.38
2019-01-21T12:30:01.474Z,101729.14
2019-01-21T12:32:21.721Z,101733.14
2019-01-21T12:34:53.454Z,101725.89
2019-01-21T12:37:04.486Z,101731.84
2019-01-21T12:39:33.630Z,101723.62
2019-01-21T12:42:16.133Z,101717.88
2019-01-21T12:44:46.451Z,101718.83
2019-01-21T12:47:04.464Z,101712.52
2019-01-21T12:49:34.258Z,101714.87
2019-01-21T12:52:10.934Z,101712.45
2019-01-21T12:54:27.744Z,101716.01
2019-01-21T12:56:47.107Z,101714.81
2019-01-21T12:59:16.113Z,101709.28
2019-01-21T13:01:28.105Z,101706.17
2019-01-21T13:03:56.723Z,101704.13
2019-01-21T13:06:25.434Z,101704.98
2019-01-21T13:08:41.964Z,101703.50
2019-01-21T13:10:55.782Z,101706.08
2019-01-21T13:13:32.773Z,101695.23
2019-01-21T13:16:11.157Z,101698.03
2019-01-21T13:18:45.727Z,101694.33
2019-01-21T13:21:11.615Z,101694.33
2019-01-21T13:23:37.979Z,101694.58
2019-01-21T13:26:16.182Z,101695.39
2019-01-21T13:28:50.506Z,101693.61
2019-01-21T13:31:10.616Z,101685.81
2019-01-21T13:33:45.054Z,101691.13
2019-01-21T13:36:17.608Z,101693.20
2019-01-21T13:38:47.003Z,101696.94
2019-01-21T13:41:13.037Z,101699.80
2019-01-21T13:43:30.497Z,101697.44
2019-01-21T13:45:47.157Z,101694.96
2019-01-21T13:48:13.978Z,101698.73
2019-01-21T13:50:45.677Z,101690.34
2019-01-21T13:53:17.064Z,101686.34
2019-01-21T13:55:39.544Z,101688.55
2019-01-21T13:58:21.984Z,101692.78
2019-01-21T14:00:38.580Z,101685.91
2019-01-21T14:02:49.305Z,101685.15
2019-01-21T14:05:16.774Z,101685.83
2019-01-21T14:07:59.655Z,101681.88
2019-01-21T14:10:35.642Z,101679.69
2019-01-21T14:12:49.796Z,101677.55
2019-01-21T14:15:34.964Z,101671.22
2019-01-21T14:18:17.586Z,101674.12
2019-01-21T14:20:45.865Z,101671.98
2019-01-21T14:23:16.328Z,101665.70
2019-01-21T14:25:35.658Z,101667.50
2019-01-21T14:27:56.713Z,101666.90
2019-01-21T14:30:39.053Z,101666.05
2019-01-21T14:32:59.291Z,101668.92
2019-01-21T14:35:34.022Z,101671.13
2019-01-21T14:38:19.360Z,101668.77
2019-01-21T14:40:54.943Z,101669.44
2019-01-21T14:43:23.907Z,101670.00
2019-01-21T14:45:56.395Z,101671.20
2019-01-21T14:48:31.253Z,101666.19
2019-01-21T14:51:21.283Z,101671.13
2019-01-21T14:53:59.698Z,101671.80
2019-01-21T14:56:39.839Z,101667.47
2019-01-21T14:58:58.149Z,101666.70
2019-01-21T15:01:17.461Z,101662.02
2019-01-21T15:03:46.158Z,101664.53
2019-01-21T15:06:06.550Z,101670.34
2019-01-21T15:08:17.358Z,101672.14
2019-01-21T15:10:55.032Z,101667.58
2019-01-21T15:13:24.261Z,101675.46
2019-01-21T15:15:53.121Z,101670.81
2019-01-21T15:18:24.785Z,101670.27
2019-01-21T15:20:38.399Z,101673.98
2019-01-21T15:23:07.064Z,101676.66
2019-01-21T15:25:39.322Z,101665.87
2019-01-21T15:28:05.310Z,101659.14
2019-01-21T15:30:25.598Z,101658.68
2019-01-21T15:32:44.012Z,101659.42
2019-01-21T15:35:25.065Z,101659.76
2019-01-21T15:37:42.963Z,101661.99
2019-01-21T15:40:07.886Z,101659.65
2019-01-21T15:42:24.781Z,101658.77
2019-01-21T15:44:44.228Z,101655.69
2019-01-21T15:46:57.879Z,101656.61
2019-01-21T15:49:08.791Z,101658.47
2019-01-21T15:51:51.705Z,101662.11
2019-01-21T15:54:08.608Z,101652.20
2019-01-21T15:56:38.645Z,101658.45
2019-01-21T15:59:13.544Z,101653.13
2019-01-21T16:01:42.960Z,101648.94
2019-01-21T16:04:05.522Z,101647.58
2019-01-21T16:06:39.522Z,101649.38
2019-01-21T16:09:16.294Z,101641.56
2019-01-21T16:11:49.490Z,101636.13
2019-01-21T16:13:58.928Z,101629.15
2019-01-21T16:16:50.133Z,101636.58
2019-01-21T16:19:03.752Z,101634.22
2019-01-21T16:21:47.379Z,101643.91
2019-01-21T16:24:19.302Z,101635.80
2019-01-21T16:26:33.251Z,101639.26
2019-01-21T16:28:58.239Z,101638.92
2019-01-21T16:31:11.522Z,101637.57
2019-01-21T16:34:03.582Z,101636.09
2019-01-21T16:36:50.682Z,101643.11
2019-01-21T16:39:01.847Z,101636.36
2019-01-21T16:41:30.589Z,101639.80
2019-01-21T16:43:37.689Z,101635.81
2019-01-21T16:45:44.332Z,101640.55
2019-01-21T16:47:50.472Z,101640.55
2019-01-21T16:49:57.146Z,101640.91
2019-01-21T16:52:03.533Z,101632.50
2019-01-21T16:54:10.622Z,101636.87
2019-01-21T16:56:18.602Z,101634.34
2019-01-21T16:58:25.176Z,101634.08
2019-01-21T17:00:32.502Z,101628.83
2019-01-21T17:02:39.209Z,101630.02
2019-01-21T17:04:45.865Z,101632.28
2019-01-21T17:06:53.561Z,101627.59
2019-01-21T17:09:02.760Z,101628.09
2019-01-21T17:11:12.618Z,101626.08
2019-01-21T17:13:22.474Z,101628.28
2019-01-21T17:15:29.720Z,101624.14
2019-01-21T17:17:36.110Z,101623.44
2019-01-21T17:19:42.404Z,101626.08
2019-01-21T17:21:50.672Z,101618.88
2019-01-21T17:23:59.292Z,101627.40
2019-01-21T17:26:05.670Z,101622.52
2019-01-21T17:28:12.194Z,101626.37
2019-01-21T17:30:19.298Z,101625.67
2019-01-21T17:32:25.774Z,101618.77
2019-01-21T17:34:33.511Z,101624.83
2019-01-21T17:36:44.242Z,101625.41
2019-01-21T17:38:58.517Z,101619.80
2019-01-21T17:41:07.613Z,101617.77
2019-01-21T17:43:16.758Z,101619.61
2019-01-21T17:45:27.537Z,101618.43
2019-01-21T17:47:36.917Z,101616.34
2019-01-21T17:49:43.577Z,101621.17
2019-01-21T17:51:50.413Z,101620.30
2019-01-21T17:53:58.383Z,101616.34
2019-01-21T17:56:06.264Z,101614.13
2019-01-21T17:58:13.928Z,101620.26
2019-01-21T18:00:22.483Z,101615.12
2019-01-21T18:02:30.102Z,101613.87
2019-01-21T18:04:36.651Z,101613.94
2019-01-21T18:06:44.277Z,101604.66
2019-01-21T18:08:51.127Z,101610.00
2019-01-21T18:10:57.897Z,101606.03
2019-01-21T18:13:11.236Z,101599.78
2019-01-21T18:15:18.146Z,101602.91
2019-01-21T18:17:24.815Z,101599.64
2019-01-21T18:19:31.438Z,101599.78
2019-01-21T18:21:40.263Z,101600.70
2019-01-21T18:23:47.097Z,101603.30
2019-01-21T18:25:53.986Z,101600.33
2019-01-21T18:28:00.197Z,101596.18
2019-01-21T18:30:13.769Z,101591.61
2019-01-21T18:32:20.494Z,101599.33
2019-01-21T18:34:27.501Z,101593.09
2019-01-21T18:36:34.417Z,101598.50
2019-01-21T18:38:42.380Z,101590.14
2019-01-21T18:40:49.317Z,101586.25
2019-01-21T18:42:57.591Z,101587.38
2019-01-21T18:45:06.208Z,101589.51
2019-01-21T18:47:12.740Z,101588.34
2019-01-21T18:49:22.879Z,101582.28
2019-01-21T18:51:28.870Z,101583.91
2019-01-21T18:53:36.074Z,101580.34
2019-01-21T18:55:43.308Z,101577.09
2019-01-21T18:57:55.847Z,101578.05
2019-01-21T18:59:59.937Z,101575.81
2019-01-21T19:02:06.889Z,101577.17
2019-01-21T19:04:13.852Z,101578.05
2019-01-21T19:06:20.907Z,101571.72
2019-01-21T19:08:29.490Z,101572.70
2019-01-21T19:10:37.156Z,101574.62
2019-01-21T19:12:44.170Z,101576.22
2019-01-21T19:14:51.218Z,101575.23
2019-01-21T19:16:59.391Z,101579.09
2019-01-21T19:19:05.719Z,101582.22
2019-01-21T19:21:12.670Z,101575.28
2019-01-21T19:23:19.837Z,101574.00
2019-01-21T19:25:26.620Z,101570.48
2019-01-21T19:27:34.618Z,101573.05
2019-01-21T19:29:41.580Z,101573.63
2019-01-21T19:31:48.301Z,101569.63
2019-01-21T19:33:55.202Z,101583.09
2019-01-21T19:36:02.526Z,101573.30
2019-01-21T19:38:09.411Z,101577.25
2019-01-21T19:40:23.238Z,101580.38
2019-01-21T19:42:30.132Z,101575.20
2019-01-21T19:44:37.488Z,101576.70
2019-01-21T19:46:45.970Z,101574.33
2019-01-21T19:48:53.107Z,101578.19
2019-01-21T19:50:59.768Z,101574.59
2019-01-21T19:53:06.981Z,101578.25
2019-01-21T19:55:18.349Z,101572.75
2019-01-21T19:57:25.140Z,101573.02
2019-01-21T19:59:32.520Z,101569.27
2019-01-21T20:01:39.528Z,101570.66
2019-01-21T20:03:46.058Z,101571.27
2019-01-21T20:05:53.540Z,101571.53
2019-01-21T20:08:07.009Z,101571.32
2019-01-21T20:10:20.810Z,101572.34
2019-01-21T20:12:27.998Z,101563.45
2019-01-21T20:14:37.637Z,101572.92
2019-01-21T20:16:44.489Z,101569.84
2019-01-21T20:18:51.490Z,101568.19
2019-01-21T20:20:58.716Z,101571.06
2019-01-21T20:23:05.609Z,101565.52
2019-01-21T20:25:13.346Z,101564.03
2019-01-21T20:27:20.235Z,101557.82
2019-01-21T20:29:27.195Z,101560.46
2019-01-21T20:31:35.737Z,101560.66
2019-01-21T20:33:42.353Z,101560.55
2019-01-21T20:35:49.829Z,101560.14
2019-01-21T20:37:57.210Z,101555.92
2019-01-21T20:40:05.574Z,101557.77
2019-01-21T20:42:12.506Z,101563.02
2019-01-21T20:44:19.268Z,101558.17
2019-01-21T20:46:34.492Z,101562.77
2019-01-21T20:48:41.391Z,101559.97
2019-01-21T20:50:49.232Z,101560.59
2019-01-21T20:52:56.234Z,101564.34
2019-01-21T20:55:03.163Z,101560.45
2019-01-21T20:57:10.621Z,101554.64
2019-01-21T20:59:17.432Z,101558.19
2019-01-21T21:01:24.259Z,101553.39
2019-01-21T21:03:31.093Z,101559.95
2019-01-21T21:05:37.955Z,101558.30
2019-01-21T21:07:45.052Z,101555.52
2019-01-21T21:09:52.101Z,101557.14
2019-01-21T21:12:01.487Z,101555.71
2019-01-21T21:14:10.109Z,101559.67
2019-01-21T21:16:16.654Z,101554.23
2019-01-21T21:18:23.049Z,101550.58
2019-01-21T21:20:30.818Z,101557.59
2019-01-21T21:22:37.442Z,101555.02
2019-01-21T21:24:43.958Z,101553.66
2019-01-21T21:26:50.349Z,101561.58
2019-01-21T21:28:58.275Z,101561.36
2019-01-21T21:31:04.881Z,101556.92
2019-01-21T21:33:11.600Z,101565.04
2019-01-21T21:35:18.413Z,101560.75
2019-01-21T21:37:24.782Z,101556.52
2019-01-21T21:39:34.929Z,101557.58
2019-01-21T21:41:41.933Z,101559.16
2019-01-21T21:43:48.220Z,101554.64
2019-01-21T21:45:54.862Z,101561.19
2019-01-21T21:48:01.439Z,101554.95
2019-01-21T21:50:20.709Z,101553.27
2019-01-21T21:52:27.874Z,101555.43
2019-01-21T21:54:37.661Z,101555.43
2019-01-21T21:56:47.474Z,101546.52
2019-01-21T21:58:57.591Z,101544.84
2019-01-21T22:01:07.362Z,101543.28
2019-01-21T22:03:13.622Z,101547.25
2019-01-21T22:05:20.052Z,101539.91
2019-01-21T22:07:26.531Z,101539.91
2019-01-21T22:09:34.688Z,101539.09
2019-01-21T22:11:42.600Z,101543.84
2019-01-21T22:13:50.024Z,101541.89
2019-01-21T22:15:57.811Z,101538.41
2019-01-21T22:18:08.162Z,101540.58
2019-01-21T22:20:21.471Z,101540.03
2019-01-21T22:22:34.623Z,101534.45
2019-01-21T22:24:38.212Z,101537.32
2019-01-21T22:26:44.492Z,101538.30
2019-01-21T22:28:55.749Z,101533.28
2019-01-21T22:31:05.751Z,101536.32
2019-01-21T22:33:14.030Z,101537.71
2019-01-21T22:35:21.921Z,101545.41
2019-01-21T22:37:29.091Z,101542.08
2019-01-21T22:39:37.950Z,101536.97
2019-01-21T22:41:45.062Z,101535.28
2019-01-21T22:43:53.202Z,101535.25
2019-01-21T22:46:01.403Z,101528.73
2019-01-21T22:48:07.939Z,101525.47
2019-01-21T22:50:15.900Z,101525.16
2019-01-21T22:52:22.161Z,101520.12
2019-01-21T22:54:28.672Z,101513.75
2019-01-21T22:56:36.479Z,101506.52
2019-01-21T22:58:43.467Z,101500.91
2019-01-21T23:00:57.489Z,101502.79
2019-01-21T23:03:05.346Z,101500.29
2019-01-21T23:05:13.125Z,101502.38
2019-01-21T23:07:21.096Z,101503.93
2019-01-21T23:09:28.176Z,101494.13
2019-01-21T23:11:34.527Z,101491.13
2019-01-21T23:13:41.003Z,101491.97
2019-01-21T23:15:47.573Z,101493.66
2019-01-21T23:17:55.490Z,101490.68
2019-01-21T23:20:01.667Z,101492.27
2019-01-21T23:22:08.377Z,101482.70
2019-01-21T23:24:16.615Z,101483.20
2019-01-21T23:26:23.986Z,101486.36
2019-01-21T23:28:31.964Z,101485.73
2019-01-21T23:30:38.578Z,101489.52
2019-01-21T23:32:44.785Z,101483.50
2019-01-21T23:34:51.095Z,101487.43
2019-01-21T23:36:57.965Z,101481.05
2019-01-21T23:39:06.154Z,101479.66
2019-01-21T23:41:14.392Z,101476.00
2019-01-21T23:43:20.732Z,101474.37
2019-01-21T23:45:28.552Z,101475.45
2019-01-21T23:47:35.870Z,101475.86
2019-01-21T23:49:42.390Z,101467.57
2019-01-21T23:51:48.769Z,101467.50
2019-01-21T23:53:55.384Z,101464.89
2019-01-21T23:56:01.561Z,101466.55
2019-01-21T23:58:08.131Z,101457.49
